Time;durP1;ratioP1;P1;durP2;ratioP2;P2;SDS_P1;SDS_P2;PMS_P1;PMS_P2;Temp;Humidity;BMP_temperature;BMP_pressure;BME280_temperature;BME280_humidity;BME280_pressure;Samples;Min_cycle;Max_cycle;Signal;HPM_P1;HPM_P2
2022/06/25 00:01:56;;;;;;;9.10;8.38;;;23.60;99.90;;;;;;5015123;28;20180;-64
2022/06/25 00:07:06;;;;;;;9.35;7.22;;;23.50;99.90;;;;;;5015559;28;20217;-65
2022/06/25 00:09:32;;;;;;;8.65;7.57;;;23.50;99.90;;;;;;5024018;28;20203;-65
2022/06/25 00:14:41;;;;;;;7.88;7.07;;;23.40;99.90;;;;;;5016918;28;21101;-69
2022/06/25 00:17:07;;;;;;;7.65;6.95;;;23.40;99.90;;;;;;5026039;28;20286;-66
2022/06/25 00:19:33;;;;;;;7.63;6.93;;;23.30;99.90;;;;;;5017900;28;20296;-68
2022/06/25 00:21:58;;;;;;;8.63;7.30;;;23.30;99.90;;;;;;5009946;28;20180;-68
2022/06/25 00:24:24;;;;;;;7.53;6.82;;;23.30;99.90;;;;;;5010038;28;20762;-66
2022/06/25 00:26:50;;;;;;;7.70;6.93;;;23.20;99.90;;;;;;5012308;28;20210;-66
2022/06/25 00:29:16;;;;;;;9.77;7.65;;;23.10;99.90;;;;;;5013755;28;20199;-68
2022/06/25 00:31:41;;;;;;;8.77;7.30;;;23.10;99.90;;;;;;5017922;28;20354;-68
2022/06/25 00:34:07;;;;;;;8.20;7.15;;;23.10;99.90;;;;;;5016705;28;20195;-66
2022/06/25 00:36:32;;;;;;;7.95;7.18;;;23.00;99.90;;;;;;5016497;28;20667;-65
2022/06/25 00:38:58;;;;;;;8.00;7.30;;;23.00;99.90;;;;;;5014921;28;20187;-66
2022/06/25 00:41:24;;;;;;;8.32;7.72;;;23.00;99.90;;;;;;5016081;28;20536;-67
2022/06/25 00:43:49;;;;;;;9.05;7.72;;;23.00;99.90;;;;;;5016457;28;20192;-64
2022/06/25 00:46:15;;;;;;;8.70;8.00;;;22.90;99.90;;;;;;5016460;28;20213;-65
2022/06/25 00:48:40;;;;;;;10.13;8.88;;;23.00;99.90;;;;;;5018240;28;20221;-66
2022/06/25 00:51:11;;;;;;;8.77;8.02;;;22.90;99.90;;;;;;5014209;28;20604;-69
2022/06/25 00:53:40;;;;;;;10.82;9.70;;;22.80;99.90;;;;;;5016813;28;20238;-66
2022/06/25 00:56:08;;;;;;;10.77;9.82;;;22.70;99.90;;;;;;5014911;28;20700;-65
2022/06/25 00:58:38;;;;;;;15.15;11.52;;;22.70;99.90;;;;;;5015510;28;20194;-68
2022/06/25 01:01:04;;;;;;;11.02;9.75;;;22.70;99.90;;;;;;5014714;28;20210;-68
2022/06/25 01:03:30;;;;;;;11.80;10.50;;;22.60;99.90;;;;;;5016330;28;20531;-68
2022/06/25 01:05:56;;;;;;;14.13;12.75;;;22.60;99.90;;;;;;5013663;28;20220;-69
2022/06/25 01:08:23;;;;;;;14.35;11.68;;;22.60;99.90;;;;;;5017810;28;20198;-64
2022/06/25 01:10:48;;;;;;;13.77;12.48;;;22.60;99.90;;;;;;5016540;28;20255;-66
2022/06/25 01:13:14;;;;;;;14.68;13.38;;;22.60;99.90;;;;;;5016430;28;20188;-67
2022/06/25 01:15:39;;;;;;;16.00;14.43;;;22.50;99.90;;;;;;5016540;28;20556;-65
2022/06/25 01:18:07;;;;;;;14.82;12.93;;;22.50;99.90;;;;;;5015724;28;20187;-67
2022/06/25 01:20:34;;;;;;;17.17;15.55;;;22.40;99.90;;;;;;5015694;28;20278;-66
2022/06/25 01:22:59;;;;;;;21.60;19.40;;;22.40;99.90;;;;;;5015045;28;20192;-64
2022/06/25 01:25:32;;;;;;;22.98;20.70;;;22.30;99.90;;;;;;5014564;28;20200;-66
2022/06/25 01:27:57;;;;;;;26.70;24.20;;;22.30;99.90;;;;;;5016244;28;20223;-64
2022/06/25 01:30:23;;;;;;;29.17;26.20;;;22.30;99.90;;;;;;5014078;28;20767;-66
2022/06/25 01:32:48;;;;;;;30.70;27.60;;;22.30;99.90;;;;;;5015295;28;20245;-64
2022/06/25 01:35:14;;;;;;;28.05;25.25;;;22.30;99.90;;;;;;5014453;28;20223;-66
2022/06/25 01:37:40;;;;;;;28.85;26.02;;;22.20;99.90;;;;;;5016264;28;20189;-66
2022/06/25 01:40:06;;;;;;;31.30;27.83;;;22.30;99.90;;;;;;5014271;28;20202;-65
2022/06/25 01:45:16;;;;;;;34.63;30.30;;;22.20;99.90;;;;;;4994631;28;20215;-66
2022/06/25 01:47:41;;;;;;;33.38;30.17;;;22.20;99.90;;;;;;5025111;28;20223;-65
2022/06/25 01:50:08;;;;;;;32.97;29.48;;;22.10;99.90;;;;;;5021302;28;20198;-65
2022/06/25 01:52:34;;;;;;;33.40;30.38;;;22.10;99.90;;;;;;5025101;28;20253;-66
2022/06/25 01:55:00;;;;;;;32.97;29.65;;;22.00;99.90;;;;;;5022153;28;20230;-65
2022/06/25 01:57:25;;;;;;;31.40;28.30;;;22.00;99.90;;;;;;5024895;28;20203;-65
2022/06/25 01:59:52;;;;;;;34.75;31.42;;;22.00;99.90;;;;;;5022558;28;20199;-64
2022/06/25 02:02:17;;;;;;;35.35;31.67;;;22.00;99.90;;;;;;5018147;28;20188;-66
2022/06/25 02:04:43;;;;;;;33.38;30.02;;;22.00;99.90;;;;;;5018553;28;20665;-66
2022/06/25 02:07:09;;;;;;;31.43;28.43;;;22.00;99.90;;;;;;5016340;28;20302;-65
2022/06/25 02:09:34;;;;;;;31.10;28.08;;;22.00;99.90;;;;;;5019861;28;20866;-69
2022/06/25 02:12:00;;;;;;;30.15;27.02;;;22.00;99.90;;;;;;5017889;28;20238;-66
2022/06/25 02:14:26;;;;;;;28.92;26.02;;;21.90;99.90;;;;;;5021440;28;20733;-67
2022/06/25 02:16:52;;;;;;;30.20;27.35;;;21.90;99.90;;;;;;5019136;28;20211;-65
2022/06/25 02:19:18;;;;;;;27.10;24.70;;;21.90;99.90;;;;;;5014865;28;20559;-65
2022/06/25 02:21:43;;;;;;;26.90;24.50;;;21.80;99.90;;;;;;5018346;28;20648;-66
2022/06/25 02:24:09;;;;;;;25.73;23.37;;;21.80;99.90;;;;;;5021893;28;20647;-66
2022/06/25 02:26:34;;;;;;;23.47;21.43;;;21.80;99.90;;;;;;5013470;28;20215;-65
2022/06/25 02:29:00;;;;;;;25.08;22.45;;;21.70;99.90;;;;;;5021137;28;20192;-66
2022/06/25 02:31:25;;;;;;;23.77;21.38;;;21.80;99.90;;;;;;5009477;28;20200;-66
2022/06/25 02:33:50;;;;;;;26.00;23.25;;;21.80;99.90;;;;;;5009779;28;20679;-65
2022/06/25 02:36:16;;;;;;;22.13;20.13;;;21.70;99.90;;;;;;5019708;28;20220;-66
2022/06/25 02:38:41;;;;;;;24.65;22.42;;;21.60;99.90;;;;;;5024198;28;20231;-65
2022/06/25 02:41:07;;;;;;;24.42;22.05;;;21.70;99.90;;;;;;5023578;28;20661;-65
2022/06/25 02:43:32;;;;;;;23.63;21.45;;;21.70;99.90;;;;;;5023589;28;20198;-65
2022/06/25 02:45:58;;;;;;;23.35;21.08;;;21.60;99.90;;;;;;5013829;28;20244;-66
2022/06/25 02:48:23;;;;;;;23.20;20.75;;;21.60;99.90;;;;;;5025162;28;20210;-66
2022/06/25 02:50:49;;;;;;;20.52;18.73;;;21.60;99.90;;;;;;5010734;28;20196;-66
2022/06/25 02:53:14;;;;;;;21.33;19.25;;;21.40;99.90;;;;;;5024795;28;20195;-66
2022/06/25 03:01:08;;;;;;;22.30;20.33;;;21.40;99.90;;;;;;5011924;28;20238;-70
2022/06/25 03:03:33;;;;;;;21.67;19.57;;;21.50;99.90;;;;;;5028001;28;20192;-66
2022/06/25 03:05:59;;;;;;;23.53;21.03;;;21.30;99.90;;;;;;5018431;28;20251;-66
2022/06/25 03:08:24;;;;;;;23.52;21.30;;;21.30;99.90;;;;;;5024057;28;20575;-66
2022/06/25 03:10:50;;;;;;;25.75;23.23;;;21.40;99.90;;;;;;5013846;28;20290;-66
2022/06/25 03:13:15;;;;;;;24.30;21.92;;;21.40;99.90;;;;;;5027817;28;20199;-67
2022/06/25 03:15:41;;;;;;;25.50;23.10;;;21.40;99.90;;;;;;5018544;28;20671;-65
2022/06/25 03:18:07;;;;;;;26.00;23.35;;;21.40;99.90;;;;;;5028078;28;20196;-65
2022/06/25 03:20:33;;;;;;;25.85;23.50;;;21.40;99.90;;;;;;5026431;28;20238;-64
2022/06/25 03:22:58;;;;;;;28.23;25.27;;;21.40;99.90;;;;;;5020895;28;20223;-65
2022/06/25 03:25:24;;;;;;;25.40;23.07;;;21.50;99.90;;;;;;5025849;28;20286;-65
2022/06/25 03:27:49;;;;;;;26.50;24.03;;;21.40;99.90;;;;;;5027499;28;20705;-65
2022/06/25 03:30:16;;;;;;;25.97;23.23;;;21.50;99.90;;;;;;5019634;28;20659;-66
2022/06/25 03:32:41;;;;;;;24.88;22.67;;;21.40;99.90;;;;;;5019674;28;20196;-65
2022/06/25 03:35:07;;;;;;;24.53;22.10;;;21.40;99.90;;;;;;5025617;28;20210;-64
2022/06/25 03:37:32;;;;;;;23.97;21.77;;;21.50;99.90;;;;;;5017425;28;20192;-65
2022/06/25 03:39:59;;;;;;;24.93;22.73;;;21.50;99.90;;;;;;5026113;28;20571;-65
2022/06/25 03:42:24;;;;;;;25.13;22.80;;;21.50;99.90;;;;;;5027991;28;20241;-65
2022/06/25 03:44:50;;;;;;;26.60;24.20;;;21.40;99.90;;;;;;5023213;28;20204;-68
2022/06/25 03:47:15;;;;;;;27.83;25.15;;;21.40;99.90;;;;;;5008805;28;20251;-67
2022/06/25 03:49:40;;;;;;;29.45;26.60;;;21.50;99.90;;;;;;5025516;28;20211;-67
2022/06/25 03:52:06;;;;;;;29.27;26.48;;;21.50;99.90;;;;;;5018477;28;20188;-67
2022/06/25 03:54:32;;;;;;;28.15;25.52;;;21.50;99.90;;;;;;5024825;28;21050;-66
2022/06/25 03:56:57;;;;;;;27.52;25.02;;;21.60;99.90;;;;;;5013207;28;20677;-66
2022/06/25 03:59:23;;;;;;;27.00;24.50;;;21.60;99.90;;;;;;5028064;28;20198;-67
2022/06/25 04:01:48;;;;;;;27.02;24.58;;;21.70;99.90;;;;;;5010792;28;20231;-66
2022/06/25 04:04:14;;;;;;;29.10;26.20;;;21.70;99.90;;;;;;5024467;28;20220;-66
2022/06/25 04:06:40;;;;;;;27.90;25.20;;;21.70;99.90;;;;;;5018547;28;20358;-66
2022/06/25 04:09:05;;;;;;;28.13;25.23;;;21.70;99.90;;;;;;5027396;28;20202;-66
2022/06/25 04:11:31;;;;;;;26.20;23.70;;;21.70;99.90;;;;;;5010757;28;20207;-65
2022/06/25 04:13:57;;;;;;;27.63;25.15;;;21.70;99.90;;;;;;5027834;28;20201;-66
2022/06/25 04:16:23;;;;;;;28.23;25.63;;;21.80;99.90;;;;;;5014759;28;20260;-66
2022/06/25 04:18:49;;;;;;;24.48;22.15;;;21.80;99.90;;;;;;5015752;28;20188;-66
2022/06/25 04:21:14;;;;;;;26.95;24.52;;;21.80;99.90;;;;;;5011223;28;20331;-66
2022/06/25 04:23:40;;;;;;;26.73;24.10;;;21.80;99.90;;;;;;5024015;28;20294;-66
2022/06/25 04:26:06;;;;;;;25.02;22.67;;;21.90;99.90;;;;;;5014267;28;20216;-66
2022/06/25 04:31:16;;;;;;;24.08;21.77;;;21.90;99.90;;;;;;5003137;28;20307;-66
2022/06/25 04:33:41;;;;;;;26.50;23.88;;;21.90;99.90;;;;;;5026866;28;20278;-66
2022/06/25 04:36:07;;;;;;;26.00;23.50;;;22.00;99.90;;;;;;5025498;28;20205;-66
2022/06/25 04:38:32;;;;;;;25.85;23.10;;;22.10;99.90;;;;;;5020663;28;20195;-65
2022/06/25 04:40:58;;;;;;;25.20;22.95;;;22.10;99.90;;;;;;5013629;28;20356;-66
2022/06/25 04:43:23;;;;;;;27.02;24.58;;;22.10;99.90;;;;;;5022081;28;20198;-66
2022/06/25 04:45:50;;;;;;;28.27;25.52;;;22.20;99.90;;;;;;5023613;28;20225;-66
2022/06/25 04:48:15;;;;;;;25.50;23.20;;;22.30;99.90;;;;;;5026847;28;20243;-67
2022/06/25 04:50:43;;;;;;;27.08;24.50;;;22.30;99.90;;;;;;5016578;28;20231;-66
2022/06/25 04:53:08;;;;;;;26.05;23.48;;;22.30;99.90;;;;;;5027099;28;20197;-66
2022/06/25 04:55:34;;;;;;;26.25;23.63;;;22.30;99.90;;;;;;5024425;28;20568;-63
2022/06/25 04:57:59;;;;;;;25.60;23.40;;;22.40;99.90;;;;;;5021647;28;20215;-65
2022/06/25 05:00:25;;;;;;;25.90;23.45;;;22.40;99.90;;;;;;5018149;28;20204;-66
2022/06/25 05:02:50;;;;;;;26.33;23.63;;;22.40;99.90;;;;;;5012854;28;20188;-65
2022/06/25 05:05:16;;;;;;;24.67;22.38;;;22.40;99.90;;;;;;5020255;28;20681;-66
2022/06/25 05:07:41;;;;;;;22.95;20.70;;;22.40;99.90;;;;;;5021859;28;21001;-67
2022/06/25 05:10:07;;;;;;;24.83;22.55;;;22.50;99.90;;;;;;5021326;28;20207;-68
2022/06/25 05:15:17;;;;;;;26.23;23.73;;;22.50;99.90;;;;;;5012321;28;20218;-67
2022/06/25 05:17:43;;;;;;;23.85;21.65;;;22.60;99.90;;;;;;5020916;28;20292;-67
2022/06/25 05:20:09;;;;;;;24.95;22.52;;;22.60;99.90;;;;;;5021569;28;20199;-67
2022/06/25 05:22:34;;;;;;;25.75;23.35;;;22.70;99.90;;;;;;5020254;28;20210;-68
2022/06/25 05:25:00;;;;;;;25.90;23.35;;;22.80;99.90;;;;;;5022584;28;20674;-66
2022/06/25 05:27:27;;;;;;;23.45;21.35;;;22.80;99.90;;;;;;5016658;28;20214;-66
2022/06/25 05:29:53;;;;;;;22.48;20.38;;;22.80;99.90;;;;;;5023228;28;20208;-68
2022/06/25 05:32:19;;;;;;;22.23;20.42;;;22.90;99.90;;;;;;5014523;28;20660;-69
2022/06/25 05:34:44;;;;;;;22.88;20.92;;;23.00;99.90;;;;;;5026119;28;20193;-65
2022/06/25 05:37:09;;;;;;;23.90;21.52;;;22.90;99.90;;;;;;5015545;28;20259;-66
2022/06/25 05:39:35;;;;;;;23.38;21.17;;;23.00;99.90;;;;;;5025834;28;20198;-66
2022/06/25 05:42:00;;;;;;;22.33;19.98;;;23.10;99.90;;;;;;5015933;28;20206;-67
2022/06/25 05:44:26;;;;;;;20.15;18.20;;;23.30;99.90;;;;;;5024937;28;20690;-68
2022/06/25 05:46:51;;;;;;;20.80;18.73;;;23.40;99.90;;;;;;5023306;28;20245;-65
2022/06/25 05:49:17;;;;;;;21.17;18.95;;;23.50;99.90;;;;;;5008449;28;20218;-67
2022/06/25 05:51:42;;;;;;;19.90;18.08;;;23.60;99.90;;;;;;5004978;28;20199;-67
2022/06/25 05:54:08;;;;;;;19.20;17.55;;;23.60;99.90;;;;;;5025095;28;20229;-66
2022/06/25 05:56:33;;;;;;;20.35;18.40;;;23.60;99.90;;;;;;5010211;28;20243;-66
2022/06/25 05:58:58;;;;;;;17.92;16.08;;;23.70;99.90;;;;;;5024093;28;20254;-67
2022/06/25 06:01:24;;;;;;;17.38;15.80;;;23.70;99.90;;;;;;5011046;28;20200;-69
2022/06/25 06:03:49;;;;;;;17.42;15.95;;;23.60;99.90;;;;;;5024913;28;20244;-65
2022/06/25 06:06:15;;;;;;;16.70;15.20;;;23.50;99.90;;;;;;5012404;28;20219;-65
2022/06/25 06:08:40;;;;;;;16.45;15.15;;;23.40;99.90;;;;;;5016356;28;20552;-66
2022/06/25 06:11:06;;;;;;;17.88;16.27;;;23.40;99.90;;;;;;5022857;28;20225;-66
2022/06/25 06:13:31;;;;;;;18.85;17.17;;;23.40;99.90;;;;;;5018530;28;20291;-66
2022/06/25 06:15:57;;;;;;;19.33;17.48;;;23.40;99.90;;;;;;5022727;28;20187;-66
2022/06/25 06:18:22;;;;;;;18.02;16.42;;;23.50;99.90;;;;;;5024928;28;20193;-67
2022/06/25 06:20:47;;;;;;;19.20;17.60;;;23.50;99.90;;;;;;5017043;28;20200;-67
2022/06/25 06:23:14;;;;;;;20.33;18.50;;;23.60;99.90;;;;;;5018159;28;20197;-68
2022/06/25 06:25:39;;;;;;;19.17;17.20;;;23.70;99.90;;;;;;5022459;28;20701;-66
2022/06/25 06:28:05;;;;;;;16.52;14.95;;;23.90;99.90;;;;;;5015827;28;20197;-66
2022/06/25 06:30:30;;;;;;;16.95;15.35;;;24.00;99.90;;;;;;5022512;28;20852;-66
2022/06/25 06:32:56;;;;;;;16.38;14.90;;;24.20;99.90;;;;;;5010130;28;20167;-66
2022/06/25 06:35:21;;;;;;;17.42;15.73;;;24.30;99.90;;;;;;5026925;28;20208;-67
2022/06/25 06:37:47;;;;;;;17.23;15.73;;;24.40;99.90;;;;;;5017648;28;20206;-67
2022/06/25 06:40:15;;;;;;;15.23;13.82;;;24.40;99.90;;;;;;5026201;28;20221;-65
2022/06/25 06:42:41;;;;;;;14.60;13.48;;;24.40;99.90;;;;;;5023007;28;20242;-65
2022/06/25 06:45:07;;;;;;;16.95;15.40;;;24.30;99.90;;;;;;5026043;28;20191;-66
2022/06/25 06:47:33;;;;;;;16.90;15.30;;;24.30;99.90;;;;;;5018876;28;20214;-65
2022/06/25 06:49:58;;;;;;;17.85;16.25;;;24.20;99.90;;;;;;5026880;28;20210;-67
2022/06/25 06:52:26;;;;;;;17.50;15.95;;;24.20;99.90;;;;;;5020643;28;20283;-67
2022/06/25 06:54:52;;;;;;;17.00;15.40;;;24.10;99.90;;;;;;5027918;28;20237;-68
2022/06/25 06:57:17;;;;;;;19.25;17.52;;;24.10;99.90;;;;;;5012819;28;20200;-67
2022/06/25 06:59:43;;;;;;;16.95;15.25;;;24.10;99.90;;;;;;5028884;28;20203;-66
2022/06/25 07:02:08;;;;;;;16.92;15.45;;;24.10;99.90;;;;;;5016791;28;20234;-66
2022/06/25 07:04:34;;;;;;;16.83;15.27;;;24.10;99.90;;;;;;5028528;28;20198;-67
2022/06/25 07:06:59;;;;;;;15.75;14.35;;;24.10;99.90;;;;;;5013973;28;20276;-68
2022/06/25 07:09:26;;;;;;;17.70;16.17;;;24.10;99.90;;;;;;5028530;28;20192;-65
2022/06/25 07:11:52;;;;;;;16.42;14.90;;;24.10;99.90;;;;;;5017865;28;21030;-69
2022/06/25 07:14:17;;;;;;;15.35;14.00;;;24.20;99.90;;;;;;5028627;28;20184;-68
2022/06/25 07:16:43;;;;;;;15.18;13.82;;;24.20;99.90;;;;;;5026245;28;20234;-68
2022/06/25 07:19:10;;;;;;;15.52;14.10;;;24.20;99.90;;;;;;5023336;28;20191;-67
2022/06/25 07:21:36;;;;;;;17.75;16.08;;;24.30;99.90;;;;;;5014457;28;20294;-68
2022/06/25 07:24:01;;;;;;;15.80;14.18;;;24.40;99.90;;;;;;5018279;28;20291;-68
2022/06/25 07:26:27;;;;;;;15.90;14.63;;;24.40;99.90;;;;;;5025510;28;20208;-67
2022/06/25 07:28:53;;;;;;;15.23;13.93;;;24.60;99.90;;;;;;5024383;28;20713;-68
2022/06/25 07:31:18;;;;;;;15.27;13.10;;;24.70;99.90;;;;;;5016871;28;20223;-67
2022/06/25 07:33:44;;;;;;;16.73;15.43;;;24.70;99.90;;;;;;5027723;28;20187;-69
2022/06/25 07:36:09;;;;;;;15.88;14.57;;;24.80;99.90;;;;;;5025539;28;20207;-67
2022/06/25 07:38:35;;;;;;;15.68;14.43;;;25.00;99.90;;;;;;5027462;28;20199;-68
2022/06/25 07:41:01;;;;;;;15.05;13.68;;;25.00;99.90;;;;;;5019289;28;20204;-66
2022/06/25 07:43:27;;;;;;;16.25;14.95;;;25.10;99.90;;;;;;5024541;28;20283;-67
2022/06/25 07:45:53;;;;;;;17.15;15.65;;;25.20;99.90;;;;;;5020236;28;20294;-69
2022/06/25 07:48:19;;;;;;;16.13;14.63;;;25.30;99.90;;;;;;5024336;28;20302;-67
2022/06/25 07:53:29;;;;;;;15.90;14.45;;;25.60;99.90;;;;;;4998910;28;20189;-67
2022/06/25 07:55:54;;;;;;;13.90;12.77;;;25.90;99.90;;;;;;5020843;28;20311;-68
2022/06/25 07:58:20;;;;;;;15.05;13.68;;;26.10;99.90;;;;;;5017899;28;20252;-67
2022/06/25 08:00:45;;;;;;;14.43;13.07;;;26.20;99.90;;;;;;5025366;28;20557;-67
2022/06/25 08:03:11;;;;;;;15.25;13.80;;;26.40;99.90;;;;;;5015945;28;20187;-67
2022/06/25 08:05:37;;;;;;;15.88;14.15;;;26.50;99.90;;;;;;5025632;28;20192;-68
2022/06/25 08:08:02;;;;;;;16.67;15.27;;;26.70;99.90;;;;;;5013106;28;20284;-69
2022/06/25 08:10:28;;;;;;;16.77;15.27;;;26.90;99.90;;;;;;5025380;28;20828;-69
2022/06/25 08:12:53;;;;;;;17.80;16.05;;;27.10;99.90;;;;;;5021122;28;20764;-68
2022/06/25 08:15:20;;;;;;;18.08;16.48;;;27.10;99.90;;;;;;5026536;28;20192;-70
2022/06/25 08:17:46;;;;;;;15.48;14.27;;;27.10;99.90;;;;;;5007805;28;20200;-68
2022/06/25 08:20:12;;;;;;;15.27;13.95;;;27.20;99.90;;;;;;5009990;28;20254;-65
2022/06/25 08:22:37;;;;;;;15.13;13.88;;;27.30;99.90;;;;;;5005897;28;20204;-68
2022/06/25 08:25:04;;;;;;;16.67;15.25;;;27.30;99.90;;;;;;5007204;28;20294;-68
2022/06/25 08:27:31;;;;;;;15.63;14.43;;;27.40;99.90;;;;;;5005030;28;20659;-68
2022/06/25 08:29:57;;;;;;;16.48;14.98;;;27.60;99.90;;;;;;5026578;28;20227;-68
2022/06/25 08:32:23;;;;;;;15.35;14.05;;;27.80;99.90;;;;;;5009495;28;20748;-67
2022/06/25 08:34:48;;;;;;;15.85;14.55;;;28.00;99.90;;;;;;5011614;28;20602;-69
2022/06/25 08:37:14;;;;;;;17.60;15.75;;;28.10;99.90;;;;;;5013555;28;20324;-65
2022/06/25 08:39:39;;;;;;;14.77;13.38;;;28.10;99.90;;;;;;5010765;28;20211;-68
2022/06/25 08:42:05;;;;;;;16.15;14.68;;;28.20;99.90;;;;;;5017149;28;20231;-69
2022/06/25 08:44:31;;;;;;;14.68;13.63;;;28.00;99.90;;;;;;5026216;28;20563;-66
2022/06/25 08:47:00;;;;;;;14.02;12.93;;;28.00;99.90;;;;;;5013455;28;20241;-66
2022/06/25 08:49:26;;;;;;;14.40;13.23;;;28.10;99.90;;;;;;5021610;28;20208;-66
2022/06/25 08:51:54;;;;;;;16.13;14.52;;;28.20;99.70;;;;;;5014391;28;20205;-67
2022/06/25 08:54:20;;;;;;;15.57;14.18;;;28.30;99.30;;;;;;5026246;28;20219;-68
2022/06/25 08:56:46;;;;;;;15.50;14.20;;;28.40;98.90;;;;;;5024584;28;20281;-67
2022/06/25 08:59:12;;;;;;;17.48;15.88;;;28.40;99.30;;;;;;5018481;28;20200;-86
2022/06/25 09:01:38;;;;;;;14.90;13.68;;;28.30;99.80;;;;;;5013558;28;20207;-67
2022/06/25 09:04:04;;;;;;;16.85;15.43;;;28.40;98.80;;;;;;5012569;28;20677;-68
2022/06/25 09:06:30;;;;;;;14.07;12.85;;;28.50;98.60;;;;;;5012287;28;20227;-65
2022/06/25 09:09:13;;;;;;;14.00;12.90;;;28.40;99.00;;;;;;5007373;28;20195;-66
2022/06/25 09:12:13;;;;;;;12.85;11.68;;;28.30;99.20;;;;;;5003796;28;20192;-66
2022/06/25 09:14:38;;;;;;;13.43;12.23;;;28.30;99.90;;;;;;4991702;28;20204;-67
2022/06/25 09:17:06;;;;;;;13.70;12.40;;;28.20;99.90;;;;;;5017102;28;20657;-67
2022/06/25 09:19:37;;;;;;;13.00;12.00;;;28.20;99.90;;;;;;5008370;28;20184;-66
2022/06/25 09:22:07;;;;;;;12.73;11.73;;;28.30;99.80;;;;;;5017747;28;20215;-68
2022/06/25 09:24:48;;;;;;;12.23;11.23;;;28.40;99.00;;;;;;5013908;28;20257;-69
2022/06/25 09:27:18;;;;;;;12.30;11.38;;;28.40;98.00;;;;;;5005305;28;20251;-70
2022/06/25 09:29:48;;;;;;;12.07;11.18;;;28.60;97.80;;;;;;5017900;28;20246;-65
2022/06/25 09:32:14;;;;;;;11.80;10.80;;;28.70;99.00;;;;;;5006259;28;20275;-67
2022/06/25 09:34:40;;;;;;;12.10;11.20;;;28.80;98.40;;;;;;5009887;28;20352;-62
2022/06/25 09:37:24;;;;;;;11.57;10.77;;;28.80;98.40;;;;;;5009744;28;20302;-65
2022/06/25 09:39:52;;;;;;;13.35;12.25;;;28.80;98.10;;;;;;5015549;28;20196;-63
2022/06/25 09:42:27;;;;;;;14.10;13.00;;;28.90;98.40;;;;;;5009869;28;20700;-65
2022/06/25 09:45:04;;;;;;;13.73;12.63;;;28.80;98.80;;;;;;5020379;28;20194;-69
2022/06/25 09:47:33;;;;;;;12.30;11.20;;;28.80;97.90;;;;;;5018953;28;20223;-65
2022/06/25 09:50:08;;;;;;;17.15;13.55;;;28.80;97.50;;;;;;5013075;28;20218;-62
2022/06/25 09:52:35;;;;;;;13.15;12.05;;;28.90;97.80;;;;;;5000511;28;20677;-64
2022/06/25 09:55:01;;;;;;;12.05;11.05;;;28.90;97.80;;;;;;5024849;28;20231;-63
2022/06/25 09:57:27;;;;;;;12.05;11.05;;;28.90;96.70;;;;;;5018739;28;20215;-65
2022/06/25 09:59:55;;;;;;;13.13;11.98;;;29.00;98.10;;;;;;5024441;28;20198;-69
2022/06/25 10:02:26;;;;;;;11.23;10.43;;;29.00;97.20;;;;;;5019261;28;20212;-67
2022/06/25 10:04:55;;;;;;;13.57;12.38;;;29.00;97.30;;;;;;5007577;28;20222;-66
2022/06/25 10:07:59;;;;;;;13.05;11.90;;;29.00;96.50;;;;;;5010470;28;20208;-69
2022/06/25 10:10:07;;;;;;;13.38;12.27;;;29.00;96.00;;;;;;5006225;28;20321;-65
2022/06/25 10:12:32;;;;;;;13.63;12.45;;;28.90;96.50;;;;;;5008060;28;20729;-65
2022/06/25 10:14:58;;;;;;;13.32;12.13;;;28.70;98.00;;;;;;5008073;28;20192;-64
2022/06/25 10:17:23;;;;;;;14.95;13.68;;;28.80;95.70;;;;;;5005871;28;20768;-66
2022/06/25 10:19:49;;;;;;;13.52;12.43;;;28.90;95.50;;;;;;5007949;28;20702;-68
2022/06/25 10:22:15;;;;;;;12.95;11.93;;;28.90;96.50;;;;;;5007177;28;20274;-66
2022/06/25 10:24:40;;;;;;;11.75;10.77;;;29.00;97.40;;;;;;5007934;28;20565;-65
2022/06/25 10:27:06;;;;;;;13.00;11.85;;;29.00;96.40;;;;;;5004591;28;20208;-65
2022/06/25 10:29:32;;;;;;;11.68;10.60;;;29.00;96.10;;;;;;5005825;28;20874;-67
2022/06/25 10:32:15;;;;;;;15.93;14.52;;;29.00;96.70;;;;;;5004207;28;20249;-64
2022/06/25 10:34:58;;;;;;;16.15;14.82;;;29.20;95.30;;;;;;5005018;28;20689;-63
2022/06/25 10:37:24;;;;;;;19.52;17.58;;;29.20;95.70;;;;;;5006559;28;20227;-63
2022/06/25 10:39:55;;;;;;;16.20;14.70;;;29.40;94.90;;;;;;5007030;28;20230;-66
2022/06/25 10:45:31;;;;;;;19.48;15.32;;;29.30;94.80;;;;;;5007249;28;20243;-65
2022/06/25 10:47:58;;;;;;;15.63;14.38;;;29.60;94.40;;;;;;4998651;28;20220;-67
2022/06/25 10:50:25;;;;;;;19.35;17.60;;;29.60;94.50;;;;;;5006274;28;20579;-65
2022/06/25 10:53:05;;;;;;;16.63;15.23;;;29.70;93.70;;;;;;5006104;28;20204;-67
2022/06/25 10:55:51;;;;;;;15.57;14.13;;;29.60;94.10;;;;;;5009229;28;20565;-65
2022/06/25 10:58:26;;;;;;;15.48;14.27;;;29.50;94.90;;;;;;4995564;28;20223;-66
2022/06/25 11:01:00;;;;;;;16.77;15.45;;;29.50;94.60;;;;;;5007689;28;20188;-67
2022/06/25 11:03:30;;;;;;;16.23;14.85;;;29.20;94.60;;;;;;5005088;28;20658;-66
2022/06/25 11:05:57;;;;;;;15.80;13.88;;;28.90;94.70;;;;;;5012972;28;20203;-67
2022/06/25 11:08:32;;;;;;;15.48;14.10;;;28.70;95.20;;;;;;5009729;28;20212;-64
2022/06/25 11:10:57;;;;;;;16.02;14.73;;;28.50;95.10;;;;;;5008957;28;20195;-63
2022/06/25 11:13:29;;;;;;;17.55;15.98;;;28.50;95.40;;;;;;5018246;28;20291;-84
2022/06/25 11:15:55;;;;;;;15.25;13.75;;;28.70;95.10;;;;;;5028697;28;20207;-80
2022/06/25 11:18:20;;;;;;;16.02;14.60;;;28.80;94.60;;;;;;5017761;28;20211;-81
2022/06/25 11:20:49;;;;;;;15.05;13.85;;;28.80;95.70;;;;;;5027862;28;20195;-81
2022/06/25 11:23:15;;;;;;;16.20;14.63;;;29.00;94.50;;;;;;5009667;28;20278;-82
2022/06/25 11:28:52;;;;;;;15.40;13.85;;;29.30;94.10;;;;;;5011162;28;20283;-79
2022/06/25 11:31:23;;;;;;;15.52;14.15;;;29.70;93.50;;;;;;5007177;28;20180;-80
2022/06/25 11:33:51;;;;;;;14.73;13.43;;;30.10;93.10;;;;;;5007805;28;20172;-81
2022/06/25 11:36:16;;;;;;;14.73;13.45;;;30.50;92.30;;;;;;5016654;28;20313;-79
2022/06/25 11:38:49;;;;;;;14.20;13.05;;;30.60;91.60;;;;;;5021556;28;20283;-80
2022/06/25 11:41:30;;;;;;;15.13;13.82;;;30.60;91.60;;;;;;5004015;28;20192;-81
2022/06/25 11:44:05;;;;;;;15.10;13.80;;;30.60;91.20;;;;;;5016920;28;20650;-81
2022/06/25 11:46:36;;;;;;;15.18;13.57;;;30.60;90.80;;;;;;5019559;28;20264;-82
2022/06/25 11:49:05;;;;;;;14.88;13.57;;;30.60;90.60;;;;;;5008128;28;20200;-81
2022/06/25 11:51:31;;;;;;;15.48;14.07;;;30.40;91.20;;;;;;5023002;28;20689;-81
2022/06/25 11:53:57;;;;;;;13.25;12.15;;;30.40;91.20;;;;;;5015558;28;20197;-80
2022/06/25 11:56:23;;;;;;;14.88;13.68;;;30.40;91.10;;;;;;5025309;28;20406;-80
2022/06/25 11:58:48;;;;;;;15.10;13.80;;;30.30;91.00;;;;;;5020196;28;20180;-81
2022/06/25 12:01:13;;;;;;;15.43;14.18;;;30.30;91.00;;;;;;5022165;28;20299;-81
2022/06/25 12:03:40;;;;;;;14.73;13.32;;;30.30;91.60;;;;;;5016610;28;20184;-81
2022/06/25 12:06:06;;;;;;;13.32;12.32;;;30.40;91.40;;;;;;5020574;28;20199;-80
2022/06/25 12:08:32;;;;;;;15.20;13.95;;;30.30;91.30;;;;;;5015444;28;20226;-80
2022/06/25 12:11:00;;;;;;;14.18;12.98;;;30.50;90.70;;;;;;5026382;28;20191;-81
2022/06/25 12:13:27;;;;;;;15.77;14.27;;;30.60;90.30;;;;;;5015631;28;20215;-81
2022/06/25 12:16:00;;;;;;;15.15;13.77;;;30.80;90.20;;;;;;5026907;28;20200;-75
2022/06/25 12:18:32;;;;;;;14.55;13.10;;;31.00;89.30;;;;;;5025781;28;20192;-80
2022/06/25 12:20:58;;;;;;;14.80;13.50;;;31.20;88.40;;;;;;5026056;28;20203;-83
2022/06/25 12:23:24;;;;;;;15.20;13.90;;;31.30;86.90;;;;;;5024327;28;20191;-80
2022/06/25 12:25:49;;;;;;;14.45;13.35;;;31.50;85.70;;;;;;5026689;28;20203;-81
2022/06/25 12:28:15;;;;;;;13.32;12.23;;;31.60;86.00;;;;;;5016022;28;20308;-81
2022/06/25 12:30:41;;;;;;;13.63;12.57;;;31.60;85.10;;;;;;5026671;28;20199;-82
2022/06/25 12:33:15;;;;;;;12.68;11.65;;;31.70;85.80;;;;;;5011706;28;20200;-81
2022/06/25 12:35:44;;;;;;;12.05;11.05;;;31.90;84.20;;;;;;5008616;28;20278;-81
2022/06/25 12:38:12;;;;;;;13.43;12.27;;;32.20;82.20;;;;;;5016016;28;20286;-81
2022/06/25 12:40:49;;;;;;;12.90;12.00;;;32.60;82.00;;;;;;5026364;28;20195;-81
2022/06/25 12:43:15;;;;;;;13.50;12.20;;;32.90;82.00;;;;;;5010254;28;20195;-83
2022/06/25 12:45:46;;;;;;;11.85;10.85;;;33.40;79.90;;;;;;5011148;28;20227;-79
2022/06/25 12:48:23;;;;;;;11.25;10.32;;;34.00;79.70;;;;;;5008039;28;20229;-81
2022/06/25 12:50:49;;;;;;;11.75;10.55;;;34.30;75.70;;;;;;5022963;28;20214;-81
2022/06/25 12:53:16;;;;;;;10.70;9.90;;;34.90;75.60;;;;;;5014389;28;20553;-80
2022/06/25 12:55:48;;;;;;;11.88;10.88;;;35.40;72.90;;;;;;5026200;28;20772;-80